sensor_id;sensor_type;location;lat;lon;timestamp;pressure;altitude;pressure_sealevel;temperature;humidity
32452;BME280;45528;52.102;5.242;2023-07-02T00:01:04;100282.0;;;23.19;62.13
32452;BME280;45528;52.102;5.242;2023-07-02T00:02:41;100289.0;;;23.13;62.11
32452;BME280;45528;52.102;5.242;2023-07-02T00:04:17;100298.0;;;23.04;62.16
32452;BME280;45528;52.102;5.242;2023-07-02T00:07:29;100293.0;;;22.91;62.31
32452;BME280;45528;52.102;5.242;2023-07-02T00:09:06;100292.0;;;22.85;62.35
32452;BME280;45528;52.102;5.242;2023-07-02T00:10:43;100296.0;;;22.78;62.79
32452;BME280;45528;52.102;5.242;2023-07-02T00:12:20;100299.0;;;22.74;62.2
32452;BME280;45528;52.102;5.242;2023-07-02T00:15:32;100302.0;;;22.62;62.36
32452;BME280;45528;52.102;5.242;2023-07-02T00:17:08;100306.0;;;22.58;62.56
32452;BME280;45528;52.102;5.242;2023-07-02T00:18:45;100312.0;;;22.47;60.45
32452;BME280;45528;52.102;5.242;2023-07-02T00:21:57;100315.0;;;22.46;60.54
32452;BME280;45528;52.102;5.242;2023-07-02T00:23:34;100321.0;;;22.56;60.08
32452;BME280;45528;52.102;5.242;2023-07-02T00:25:12;100320.0;;;22.48;61.02
32452;BME280;45528;52.102;5.242;2023-07-02T00:28:26;100320.0;;;22.51;60.86
32452;BME280;45528;52.102;5.242;2023-07-02T00:30:02;100318.0;;;22.46;61.37
32452;BME280;45528;52.102;5.242;2023-07-02T00:31:39;100317.0;;;22.31;61.25
32452;BME280;45528;52.102;5.242;2023-07-02T00:33:15;100318.0;;;22.23;60.66
32452;BME280;45528;52.102;5.242;2023-07-02T00:36:29;100322.0;;;22.21;61.64
32452;BME280;45528;52.102;5.242;2023-07-02T00:38:06;100324.0;;;22.13;61.56
32452;BME280;45528;52.102;5.242;2023-07-02T00:39:42;100321.0;;;22.23;61.79
32452;BME280;45528;52.102;5.242;2023-07-02T00:42:54;100319.0;;;22.16;62.07
32452;BME280;45528;52.102;5.242;2023-07-02T00:44:30;100320.0;;;22.16;62.22
32452;BME280;45528;52.102;5.242;2023-07-02T00:46:06;100324.0;;;22.14;62.14
32452;BME280;45528;52.102;5.242;2023-07-02T00:49:21;100322.0;;;22.11;62.05
32452;BME280;45528;52.102;5.242;2023-07-02T00:50:58;100320.0;;;22.01;62.65
32452;BME280;45528;52.102;5.242;2023-07-02T00:52:35;100316.0;;;21.94;62.1
32452;BME280;45528;52.102;5.242;2023-07-02T00:54:11;100321.0;;;21.94;62.31
32452;BME280;45528;52.102;5.242;2023-07-02T00:57:23;100324.0;;;21.93;62.35
32452;BME280;45528;52.102;5.242;2023-07-02T00:58:59;100331.0;;;21.94;62.7
32452;BME280;45528;52.102;5.242;2023-07-02T01:00:35;100328.0;;;21.89;62.78
32452;BME280;45528;52.102;5.242;2023-07-02T01:03:53;100328.0;;;21.92;62.6
32452;BME280;45528;52.102;5.242;2023-07-02T01:05:29;100322.0;;;21.88;62.51
32452;BME280;45528;52.102;5.242;2023-07-02T01:07:05;100327.0;;;21.81;62.53
32452;BME280;45528;52.102;5.242;2023-07-02T01:10:18;100328.0;;;21.79;62.66
32452;BME280;45528;52.102;5.242;2023-07-02T01:11:57;100325.0;;;21.77;62.45
32452;BME280;45528;52.102;5.242;2023-07-02T01:13:35;100328.0;;;21.69;62.45
32452;BME280;45528;52.102;5.242;2023-07-02T01:15:12;100325.0;;;21.68;61.33
32452;BME280;45528;52.102;5.242;2023-07-02T01:18:25;100326.0;;;21.57;62.07
32452;BME280;45528;52.102;5.242;2023-07-02T01:20:03;100331.0;;;21.57;62.23
32452;BME280;45528;52.102;5.242;2023-07-02T01:21:41;100328.0;;;21.49;62.26
32452;BME280;45528;52.102;5.242;2023-07-02T01:24:56;100326.0;;;21.51;62.01
32452;BME280;45528;52.102;5.242;2023-07-02T01:26:33;100326.0;;;21.53;61.28
32452;BME280;45528;52.102;5.242;2023-07-02T01:28:10;100330.0;;;21.4;61.6
32452;BME280;45528;52.102;5.242;2023-07-02T01:29:47;100332.0;;;21.4;60.82
32452;BME280;45528;52.102;5.242;2023-07-02T01:33:02;100336.0;;;21.4;60.68
32452;BME280;45528;52.102;5.242;2023-07-02T01:34:39;100334.0;;;21.31;60.46
32452;BME280;45528;52.102;5.242;2023-07-02T01:36:15;100330.0;;;21.19;60.77
32452;BME280;45528;52.102;5.242;2023-07-02T01:39:27;100331.0;;;21.05;61.23
32452;BME280;45528;52.102;5.242;2023-07-02T01:41:03;100326.0;;;21.05;61.26
32452;BME280;45528;52.102;5.242;2023-07-02T01:42:39;100325.0;;;20.9;61.48
32452;BME280;45528;52.102;5.242;2023-07-02T01:45:52;100330.0;;;20.86;61.59
32452;BME280;45528;52.102;5.242;2023-07-02T01:47:29;100333.0;;;20.84;61.67
32452;BME280;45528;52.102;5.242;2023-07-02T01:49:06;100333.0;;;20.7;62.02
32452;BME280;45528;52.102;5.242;2023-07-02T01:50:42;100333.0;;;20.68;62.03
32452;BME280;45528;52.102;5.242;2023-07-02T01:53:54;100336.0;;;20.74;61.59
32452;BME280;45528;52.102;5.242;2023-07-02T01:55:30;100331.0;;;20.7;61.92
32452;BME280;45528;52.102;5.242;2023-07-02T01:57:06;100330.0;;;20.86;60.55
32452;BME280;45528;52.102;5.242;2023-07-02T02:00:20;100332.0;;;20.77;61.28
32452;BME280;45528;52.102;5.242;2023-07-02T02:01:58;100334.0;;;20.71;61.3
32452;BME280;45528;52.102;5.242;2023-07-02T02:03:34;100339.0;;;20.61;61.87
32452;BME280;45528;52.102;5.242;2023-07-02T02:06:47;100339.0;;;20.52;61.57
32452;BME280;45528;52.102;5.242;2023-07-02T02:08:23;100341.0;;;20.47;61.79
32452;BME280;45528;52.102;5.242;2023-07-02T02:09:59;100341.0;;;20.45;62.04
32452;BME280;45528;52.102;5.242;2023-07-02T02:11:39;100347.0;;;20.39;62.28
32452;BME280;45528;52.102;5.242;2023-07-02T02:14:51;100345.0;;;20.34;62.05
32452;BME280;45528;52.102;5.242;2023-07-02T02:16:27;100346.0;;;20.31;62.11
32452;BME280;45528;52.102;5.242;2023-07-02T02:18:04;100346.0;;;20.34;62.21
32452;BME280;45528;52.102;5.242;2023-07-02T02:21:17;100341.0;;;20.31;61.66
32452;BME280;45528;52.102;5.242;2023-07-02T02:22:53;100340.0;;;20.3;61.51
32452;BME280;45528;52.102;5.242;2023-07-02T02:24:30;100340.0;;;20.27;61.08
32452;BME280;45528;52.102;5.242;2023-07-02T02:27:42;100343.0;;;20.23;60.65
32452;BME280;45528;52.102;5.242;2023-07-02T02:29:19;100346.0;;;20.2;61.13
32452;BME280;45528;52.102;5.242;2023-07-02T02:30:55;100350.0;;;20.16;61.34
32452;BME280;45528;52.102;5.242;2023-07-02T02:32:31;100355.0;;;20.14;61.22
32452;BME280;45528;52.102;5.242;2023-07-02T02:35:44;100355.0;;;20.05;61.53
32452;BME280;45528;52.102;5.242;2023-07-02T02:37:20;100350.0;;;20.02;61.5
32452;BME280;45528;52.102;5.242;2023-07-02T02:38:56;100352.0;;;19.97;61.5
32452;BME280;45528;52.102;5.242;2023-07-02T02:42:08;100353.0;;;19.93;61.62
32452;BME280;45528;52.102;5.242;2023-07-02T02:43:45;100355.0;;;19.87;61.89
32452;BME280;45528;52.102;5.242;2023-07-02T02:45:21;100358.0;;;19.84;62.05
32452;BME280;45528;52.102;5.242;2023-07-02T02:48:34;100361.0;;;19.82;62.07
32452;BME280;45528;52.102;5.242;2023-07-02T02:50:12;100358.0;;;19.88;62.06
32452;BME280;45528;52.102;5.242;2023-07-02T02:51:49;100353.0;;;19.86;62.2
32452;BME280;45528;52.102;5.242;2023-07-02T02:53:25;100355.0;;;19.88;62.07
32452;BME280;45528;52.102;5.242;2023-07-02T02:56:38;100358.0;;;19.8;61.99
32452;BME280;45528;52.102;5.242;2023-07-02T02:58:15;100360.0;;;19.84;62.2
32452;BME280;45528;52.102;5.242;2023-07-02T02:59:51;100366.0;;;19.77;62.16
32452;BME280;45528;52.102;5.242;2023-07-02T03:03:04;100367.0;;;19.77;62.32
32452;BME280;45528;52.102;5.242;2023-07-02T03:04:40;100370.0;;;19.81;62.15
32452;BME280;45528;52.102;5.242;2023-07-02T03:06:16;100368.0;;;19.75;62.25
32452;BME280;45528;52.102;5.242;2023-07-02T03:09:29;100370.0;;;19.71;62.33
32452;BME280;45528;52.102;5.242;2023-07-02T03:11:07;100371.0;;;19.72;62.55
32452;BME280;45528;52.102;5.242;2023-07-02T03:12:43;100377.0;;;19.7;62.67
32452;BME280;45528;52.102;5.242;2023-07-02T03:14:19;100380.0;;;19.7;62.7
32452;BME280;45528;52.102;5.242;2023-07-02T03:17:31;100382.0;;;19.7;62.58
32452;BME280;45528;52.102;5.242;2023-07-02T03:19:07;100381.0;;;19.72;62.5
32452;BME280;45528;52.102;5.242;2023-07-02T03:20:44;100376.0;;;19.66;62.22
32452;BME280;45528;52.102;5.242;2023-07-02T03:23:57;100378.0;;;19.62;62.1
32452;BME280;45528;52.102;5.242;2023-07-02T03:25:33;100380.0;;;19.61;62.25
32452;BME280;45528;52.102;5.242;2023-07-02T03:27:09;100378.0;;;19.59;62.11
32452;BME280;45528;52.102;5.242;2023-07-02T03:30:22;100382.0;;;19.53;61.79
32452;BME280;45528;52.102;5.242;2023-07-02T03:31:58;100377.0;;;19.5;62.29
32452;BME280;45528;52.102;5.242;2023-07-02T03:33:35;100380.0;;;19.52;62.59
32452;BME280;45528;52.102;5.242;2023-07-02T03:36:48;100381.0;;;19.5;62.45
32452;BME280;45528;52.102;5.242;2023-07-02T03:38:24;100383.0;;;19.46;62.63
32452;BME280;45528;52.102;5.242;2023-07-02T03:40:00;100386.0;;;19.48;62.48
32452;BME280;45528;52.102;5.242;2023-07-02T03:41:36;100388.0;;;19.48;62.54
32452;BME280;45528;52.102;5.242;2023-07-02T03:44:49;100387.0;;;19.5;62.57
32452;BME280;45528;52.102;5.242;2023-07-02T03:46:26;100382.0;;;19.5;62.34
32452;BME280;45528;52.102;5.242;2023-07-02T03:48:02;100387.0;;;19.52;62.24
32452;BME280;45528;52.102;5.242;2023-07-02T03:51:16;100390.0;;;19.53;62.25
32452;BME280;45528;52.102;5.242;2023-07-02T03:52:51;100388.0;;;19.53;62.35
32452;BME280;45528;52.102;5.242;2023-07-02T03:54:27;100395.0;;;19.47;61.87
32452;BME280;45528;52.102;5.242;2023-07-02T03:57:40;100395.0;;;19.47;61.74
32452;BME280;45528;52.102;5.242;2023-07-02T03:59:16;100396.0;;;19.47;61.93
32452;BME280;45528;52.102;5.242;2023-07-02T04:00:52;100401.0;;;19.45;62.02
32452;BME280;45528;52.102;5.242;2023-07-02T04:02:28;100399.0;;;19.46;62.17
32452;BME280;45528;52.102;5.242;2023-07-02T04:05:40;100406.0;;;19.48;61.89
32452;BME280;45528;52.102;5.242;2023-07-02T04:07:16;100405.0;;;19.5;61.92
32452;BME280;45528;52.102;5.242;2023-07-02T04:08:53;100405.0;;;19.52;61.33
32452;BME280;45528;52.102;5.242;2023-07-02T04:12:07;100412.0;;;19.56;61.72
32452;BME280;45528;52.102;5.242;2023-07-02T04:13:43;100414.0;;;19.66;61.29
32452;BME280;45528;52.102;5.242;2023-07-02T04:15:19;100417.0;;;19.71;61.36
32452;BME280;45528;52.102;5.242;2023-07-02T04:18:33;100422.0;;;19.72;61.45
32452;BME280;45528;52.102;5.242;2023-07-02T04:20:10;100420.0;;;19.75;61.37
32452;BME280;45528;52.102;5.242;2023-07-02T04:21:47;100420.0;;;19.75;61.67
32452;BME280;45528;52.102;5.242;2023-07-02T04:23:23;100417.0;;;19.78;61.24
32452;BME280;45528;52.102;5.242;2023-07-02T04:26:36;100416.0;;;19.78;61.3
32452;BME280;45528;52.102;5.242;2023-07-02T04:28:12;100419.0;;;19.87;61.18
32452;BME280;45528;52.102;5.242;2023-07-02T04:29:48;100419.0;;;19.84;61.4
32452;BME280;45528;52.102;5.242;2023-07-02T04:33:02;100418.0;;;19.82;61.45
32452;BME280;45528;52.102;5.242;2023-07-02T04:34:39;100419.0;;;19.88;61.41
32452;BME280;45528;52.102;5.242;2023-07-02T04:36:15;100422.0;;;19.86;61.4
32452;BME280;45528;52.102;5.242;2023-07-02T04:39:28;100424.0;;;19.89;61.63
32452;BME280;45528;52.102;5.242;2023-07-02T04:41:04;100423.0;;;19.91;61.4
32452;BME280;45528;52.102;5.242;2023-07-02T04:42:41;100428.0;;;19.93;61.52
32452;BME280;45528;52.102;5.242;2023-07-02T04:44:18;100431.0;;;20.03;60.88
32452;BME280;45528;52.102;5.242;2023-07-02T04:47:31;100427.0;;;20.02;61.42
32452;BME280;45528;52.102;5.242;2023-07-02T04:49:08;100427.0;;;20.02;61.39
32452;BME280;45528;52.102;5.242;2023-07-02T04:50:45;100428.0;;;20.05;61.34
32452;BME280;45528;52.102;5.242;2023-07-02T04:53:58;100430.0;;;20.14;61.2
32452;BME280;45528;52.102;5.242;2023-07-02T04:55:35;100434.0;;;20.2;60.8
32452;BME280;45528;52.102;5.242;2023-07-02T04:57:11;100442.0;;;20.34;60.16
32452;BME280;45528;52.102;5.242;2023-07-02T05:00:23;100443.0;;;20.37;60.06
32452;BME280;45528;52.102;5.242;2023-07-02T05:02:00;100445.0;;;20.38;60.6
32452;BME280;45528;52.102;5.242;2023-07-02T05:03:37;100442.0;;;20.55;59.03
32452;BME280;45528;52.102;5.242;2023-07-02T05:05:13;100442.0;;;20.55;59.62
32452;BME280;45528;52.102;5.242;2023-07-02T05:08:26;100441.0;;;20.59;59.67
32452;BME280;45528;52.102;5.242;2023-07-02T05:10:02;100442.0;;;20.7;59.14
32452;BME280;45528;52.102;5.242;2023-07-02T05:11:39;100446.0;;;20.72;58.61
32452;BME280;45528;52.102;5.242;2023-07-02T05:14:52;100447.0;;;20.91;57.5
32452;BME280;45528;52.102;5.242;2023-07-02T05:16:29;100448.0;;;20.98;57.83
32452;BME280;45528;52.102;5.242;2023-07-02T05:18:05;100451.0;;;20.98;56.99
32452;BME280;45528;52.102;5.242;2023-07-02T05:21:20;100451.0;;;21.03;57.1
32452;BME280;45528;52.102;5.242;2023-07-02T05:22:58;100453.0;;;21.19;56.33
32452;BME280;45528;52.102;5.242;2023-07-02T05:24:35;100455.0;;;21.27;56.38
32452;BME280;45528;52.102;5.242;2023-07-02T05:26:11;100455.0;;;21.28;56.28
32452;BME280;45528;52.102;5.242;2023-07-02T05:29:24;100455.0;;;21.39;55.78
32452;BME280;45528;52.102;5.242;2023-07-02T05:31:00;100457.0;;;21.5;55.34
32452;BME280;45528;52.102;5.242;2023-07-02T05:32:37;100456.0;;;21.44;55.46
32452;BME280;45528;52.102;5.242;2023-07-02T05:35:50;100465.0;;;21.58;54.93
32452;BME280;45528;52.102;5.242;2023-07-02T05:37:27;100463.0;;;21.57;54.68
32452;BME280;45528;52.102;5.242;2023-07-02T05:39:03;100465.0;;;21.7;54.33
32452;BME280;45528;52.102;5.242;2023-07-02T05:42:16;100468.0;;;21.7;54.57
32452;BME280;45528;52.102;5.242;2023-07-02T05:43:52;100474.0;;;21.82;54.08
32452;BME280;45528;52.102;5.242;2023-07-02T05:45:29;100471.0;;;22.01;53.69
32452;BME280;45528;52.102;5.242;2023-07-02T05:47:06;100473.0;;;22.14;53.0
32452;BME280;45528;52.102;5.242;2023-07-02T05:50:19;100476.0;;;22.32;52.62
32452;BME280;45528;52.102;5.242;2023-07-02T05:51:56;100482.0;;;22.38;52.54
32452;BME280;45528;52.102;5.242;2023-07-02T05:53:32;100482.0;;;22.34;52.2
32452;BME280;45528;52.102;5.242;2023-07-02T05:56:44;100487.0;;;22.4;53.14
32452;BME280;45528;52.102;5.242;2023-07-02T05:58:21;100482.0;;;22.52;52.82
32452;BME280;45528;52.102;5.242;2023-07-02T05:59:59;100485.0;;;22.67;52.45
32452;BME280;45528;52.102;5.242;2023-07-02T06:03:12;100487.0;;;22.81;51.42
32452;BME280;45528;52.102;5.242;2023-07-02T06:04:49;100489.0;;;22.86;51.26
32452;BME280;45528;52.102;5.242;2023-07-02T06:06:25;100488.0;;;22.76;51.99
32452;BME280;45528;52.102;5.242;2023-07-02T06:08:03;100489.0;;;22.84;50.99
32452;BME280;45528;52.102;5.242;2023-07-02T06:11:16;100494.0;;;23.04;50.54
32452;BME280;45528;52.102;5.242;2023-07-02T06:12:53;100494.0;;;23.19;50.71
32452;BME280;45528;52.102;5.242;2023-07-02T06:14:29;100491.0;;;23.29;50.35
32452;BME280;45528;52.102;5.242;2023-07-02T06:17:43;100497.0;;;23.41;49.81
32452;BME280;45528;52.102;5.242;2023-07-02T06:19:18;100502.0;;;23.48;50.17
32452;BME280;45528;52.102;5.242;2023-07-02T06:20:55;100507.0;;;23.58;49.76
32452;BME280;45528;52.102;5.242;2023-07-02T06:24:08;100505.0;;;23.47;50.09
32452;BME280;45528;52.102;5.242;2023-07-02T06:25:44;100509.0;;;23.37;49.69
32452;BME280;45528;52.102;5.242;2023-07-02T06:27:20;100506.0;;;23.45;48.75
32452;BME280;45528;52.102;5.242;2023-07-02T06:28:58;100505.0;;;23.11;49.58
32452;BME280;45528;52.102;5.242;2023-07-02T06:32:10;100501.0;;;22.96;48.8
32452;BME280;45528;52.102;5.242;2023-07-02T06:33:46;100508.0;;;23.07;49.35
32452;BME280;45528;52.102;5.242;2023-07-02T06:35:22;100507.0;;;23.12;49.03
32452;BME280;45528;52.102;5.242;2023-07-02T06:38:36;100512.0;;;23.22;49.61
32452;BME280;45528;52.102;5.242;2023-07-02T06:40:13;100513.0;;;23.33;49.94
32452;BME280;45528;52.102;5.242;2023-07-02T06:41:49;100515.0;;;23.02;49.72
32452;BME280;45528;52.102;5.242;2023-07-02T06:45:02;100519.0;;;23.38;48.85
32452;BME280;45528;52.102;5.242;2023-07-02T06:46:39;100518.0;;;23.33;49.26
32452;BME280;45528;52.102;5.242;2023-07-02T06:48:15;100523.0;;;23.18;48.38
32452;BME280;45528;52.102;5.242;2023-07-02T06:49:52;100528.0;;;23.36;48.06
32452;BME280;45528;52.102;5.242;2023-07-02T06:53:06;100534.0;;;23.6;48.13
32452;BME280;45528;52.102;5.242;2023-07-02T06:54:42;100532.0;;;23.34;47.28
32452;BME280;45528;52.102;5.242;2023-07-02T06:56:19;100534.0;;;23.4;46.21
32452;BME280;45528;52.102;5.242;2023-07-02T06:59:31;100535.0;;;23.92;47.55
32452;BME280;45528;52.102;5.242;2023-07-02T07:01:07;100543.0;;;24.17;47.97
32452;BME280;45528;52.102;5.242;2023-07-02T07:02:43;100553.0;;;24.36;46.81
32452;BME280;45528;52.102;5.242;2023-07-02T07:05:57;100551.0;;;24.41;45.81
32452;BME280;45528;52.102;5.242;2023-07-02T07:07:33;100555.0;;;24.41;46.04
32452;BME280;45528;52.102;5.242;2023-07-02T07:09:10;100559.0;;;24.15;44.96
32452;BME280;45528;52.102;5.242;2023-07-02T07:10:47;100561.0;;;24.17;45.04
32452;BME280;45528;52.102;5.242;2023-07-02T07:14:01;100561.0;;;24.24;44.58
32452;BME280;45528;52.102;5.242;2023-07-02T07:15:38;100557.0;;;24.05;42.82
32452;BME280;45528;52.102;5.242;2023-07-02T07:17:16;100565.0;;;24.23;43.29
32452;BME280;45528;52.102;5.242;2023-07-02T07:20:30;100568.0;;;24.42;42.86
32452;BME280;45528;52.102;5.242;2023-07-02T07:22:07;100573.0;;;24.49;42.81
32452;BME280;45528;52.102;5.242;2023-07-02T07:23:44;100571.0;;;24.53;42.82
32452;BME280;45528;52.102;5.242;2023-07-02T07:25:21;100577.0;;;24.41;41.95
32452;BME280;45528;52.102;5.242;2023-07-02T07:28:35;100578.0;;;24.19;42.58
32452;BME280;45528;52.102;5.242;2023-07-02T07:30:12;100584.0;;;24.09;42.74
32452;BME280;45528;52.102;5.242;2023-07-02T07:31:49;100582.0;;;24.05;43.96
32452;BME280;45528;52.102;5.242;2023-07-02T07:35:01;100582.0;;;24.24;42.99
32452;BME280;45528;52.102;5.242;2023-07-02T07:36:38;100584.0;;;24.23;42.98
32452;BME280;45528;52.102;5.242;2023-07-02T07:38:15;100587.0;;;24.33;43.84
32452;BME280;45528;52.102;5.242;2023-07-02T07:41:29;100592.0;;;24.39;43.1
32452;BME280;45528;52.102;5.242;2023-07-02T07:43:06;100594.0;;;24.58;42.91
32452;BME280;45528;52.102;5.242;2023-07-02T07:44:43;100588.0;;;24.51;42.19
32452;BME280;45528;52.102;5.242;2023-07-02T07:46:20;100587.0;;;24.69;41.84
32452;BME280;45528;52.102;5.242;2023-07-02T07:49:33;100589.0;;;24.63;41.3
32452;BME280;45528;52.102;5.242;2023-07-02T07:51:09;100595.0;;;24.75;42.4
32452;BME280;45528;52.102;5.242;2023-07-02T07:52:45;100595.0;;;24.65;42.27
32452;BME280;45528;52.102;5.242;2023-07-02T07:55:59;100592.0;;;24.63;41.91
32452;BME280;45528;52.102;5.242;2023-07-02T07:57:36;100595.0;;;24.98;42.66
32452;BME280;45528;52.102;5.242;2023-07-02T07:59:14;100606.0;;;25.0;41.93
32452;BME280;45528;52.102;5.242;2023-07-02T08:02:26;100588.0;;;25.0;42.14
32452;BME280;45528;52.102;5.242;2023-07-02T08:04:03;100603.0;;;24.65;40.81
32452;BME280;45528;52.102;5.242;2023-07-02T08:05:40;100602.0;;;24.71;40.18
32452;BME280;45528;52.102;5.242;2023-07-02T08:07:16;100593.0;;;25.03;40.62
32452;BME280;45528;52.102;5.242;2023-07-02T08:10:30;100596.0;;;25.0;39.78
32452;BME280;45528;52.102;5.242;2023-07-02T08:12:07;100606.0;;;25.16;40.53
32452;BME280;45528;52.102;5.242;2023-07-02T08:13:43;100607.0;;;25.06;40.12
32452;BME280;45528;52.102;5.242;2023-07-02T08:16:58;100605.0;;;24.89;40.0
32452;BME280;45528;52.102;5.242;2023-07-02T08:18:35;100614.0;;;24.87;39.74
32452;BME280;45528;52.102;5.242;2023-07-02T08:20:12;100624.0;;;24.45;40.15
32452;BME280;45528;52.102;5.242;2023-07-02T08:23:26;100614.0;;;24.36;40.14
32452;BME280;45528;52.102;5.242;2023-07-02T08:25:04;100620.0;;;24.52;40.01
32452;BME280;45528;52.102;5.242;2023-07-02T08:26:40;100621.0;;;24.72;40.9
32452;BME280;45528;52.102;5.242;2023-07-02T08:28:16;100620.0;;;24.71;38.68
32452;BME280;45528;52.102;5.242;2023-07-02T08:31:30;100628.0;;;24.65;38.62
32452;BME280;45528;52.102;5.242;2023-07-02T08:33:07;100621.0;;;24.91;39.21
32452;BME280;45528;52.102;5.242;2023-07-02T08:34:44;100623.0;;;25.04;38.47
32452;BME280;45528;52.102;5.242;2023-07-02T08:37:58;100619.0;;;24.96;37.85
32452;BME280;45528;52.102;5.242;2023-07-02T08:39:35;100626.0;;;24.85;37.49
32452;BME280;45528;52.102;5.242;2023-07-02T08:41:13;100624.0;;;25.02;38.54
32452;BME280;45528;52.102;5.242;2023-07-02T08:42:49;100630.0;;;24.99;38.82
32452;BME280;45528;52.102;5.242;2023-07-02T08:46:02;100622.0;;;24.81;39.26
32452;BME280;45528;52.102;5.242;2023-07-02T08:47:38;100628.0;;;24.65;40.35
32452;BME280;45528;52.102;5.242;2023-07-02T08:49:16;100627.0;;;24.83;40.07
32452;BME280;45528;52.102;5.242;2023-07-02T08:52:28;100630.0;;;24.89;39.76
32452;BME280;45528;52.102;5.242;2023-07-02T08:54:05;100630.0;;;25.21;39.58
32452;BME280;45528;52.102;5.242;2023-07-02T08:55:42;100627.0;;;25.32;40.1
32452;BME280;45528;52.102;5.242;2023-07-02T08:58:56;100628.0;;;25.54;40.11
32452;BME280;45528;52.102;5.242;2023-07-02T09:00:32;100635.0;;;25.62;39.07
32452;BME280;45528;52.102;5.242;2023-07-02T09:02:09;100640.0;;;25.09;38.1
32452;BME280;45528;52.102;5.242;2023-07-02T09:03:45;100640.0;;;25.28;37.78
32452;BME280;45528;52.102;5.242;2023-07-02T09:07:04;100646.0;;;25.36;39.78
32452;BME280;45528;52.102;5.242;2023-07-02T09:08:44;100646.0;;;25.37;39.01
32452;BME280;45528;52.102;5.242;2023-07-02T09:10:30;100649.0;;;25.39;38.1
32452;BME280;45528;52.102;5.242;2023-07-02T09:12:07;100643.0;;;25.14;38.26
32452;BME280;45528;52.102;5.242;2023-07-02T09:15:24;100640.0;;;25.25;37.21
32452;BME280;45528;52.102;5.242;2023-07-02T09:17:02;100650.0;;;24.74;36.65
32452;BME280;45528;52.102;5.242;2023-07-02T09:18:40;100646.0;;;24.81;37.24
32452;BME280;45528;52.102;5.242;2023-07-02T09:21:53;100651.0;;;24.65;36.39
32452;BME280;45528;52.102;5.242;2023-07-02T09:23:34;100639.0;;;24.45;36.86
32452;BME280;45528;52.102;5.242;2023-07-02T09:25:11;100645.0;;;24.7;37.03
32452;BME280;45528;52.102;5.242;2023-07-02T09:26:49;100646.0;;;24.74;35.99
32452;BME280;45528;52.102;5.242;2023-07-02T09:30:07;100651.0;;;24.81;36.21
32452;BME280;45528;52.102;5.242;2023-07-02T09:31:46;100644.0;;;24.61;36.53
32452;BME280;45528;52.102;5.242;2023-07-02T09:33:23;100649.0;;;24.89;37.22
32452;BME280;45528;52.102;5.242;2023-07-02T09:36:37;100633.0;;;25.2;36.78
32452;BME280;45528;52.102;5.242;2023-07-02T09:38:14;100634.0;;;25.3;36.1
32452;BME280;45528;52.102;5.242;2023-07-02T09:39:51;100640.0;;;25.46;35.49
32452;BME280;45528;52.102;5.242;2023-07-02T09:41:29;100641.0;;;25.29;35.29
32452;BME280;45528;52.102;5.242;2023-07-02T09:44:42;100644.0;;;25.56;35.5
32452;BME280;45528;52.102;5.242;2023-07-02T09:46:19;100643.0;;;25.91;34.12
32452;BME280;45528;52.102;5.242;2023-07-02T09:47:56;100637.0;;;25.86;35.01
32452;BME280;45528;52.102;5.242;2023-07-02T09:51:13;100643.0;;;25.88;33.93
32452;BME280;45528;52.102;5.242;2023-07-02T09:52:50;100646.0;;;25.73;34.17
32452;BME280;45528;52.102;5.242;2023-07-02T09:54:27;100646.0;;;25.74;34.83
32452;BME280;45528;52.102;5.242;2023-07-02T09:56:06;100646.0;;;25.81;34.65
32452;BME280;45528;52.102;5.242;2023-07-02T09:59:20;100646.0;;;25.47;34.42
32452;BME280;45528;52.102;5.242;2023-07-02T10:00:58;100642.0;;;25.44;33.92
32452;BME280;45528;52.102;5.242;2023-07-02T10:02:35;100646.0;;;25.39;33.36
32452;BME280;45528;52.102;5.242;2023-07-02T10:05:50;100645.0;;;25.44;33.44
32452;BME280;45528;52.102;5.242;2023-07-02T10:07:27;100653.0;;;25.27;32.93
32452;BME280;45528;52.102;5.242;2023-07-02T10:09:04;100645.0;;;25.26;33.33
32452;BME280;45528;52.102;5.242;2023-07-02T10:10:42;100655.0;;;25.0;32.82
32452;BME280;45528;52.102;5.242;2023-07-02T10:13:57;100663.0;;;25.07;32.82
32452;BME280;45528;52.102;5.242;2023-07-02T10:15:34;100647.0;;;25.02;32.89
32452;BME280;45528;52.102;5.242;2023-07-02T10:17:11;100667.0;;;24.75;33.29
32452;BME280;45528;52.102;5.242;2023-07-02T10:20:52;100664.0;;;25.07;33.0
32452;BME280;45528;52.102;5.242;2023-07-02T10:22:28;100656.0;;;25.0;33.5
32452;BME280;45528;52.102;5.242;2023-07-02T10:24:10;100660.0;;;24.94;34.31
32452;BME280;45528;52.102;5.242;2023-07-02T10:25:46;100658.0;;;25.42;32.96
32452;BME280;45528;52.102;5.242;2023-07-02T10:29:18;100655.0;;;25.62;34.14
32452;BME280;45528;52.102;5.242;2023-07-02T10:30:56;100657.0;;;25.54;33.85
32452;BME280;45528;52.102;5.242;2023-07-02T10:32:34;100662.0;;;26.06;33.25
32452;BME280;45528;52.102;5.242;2023-07-02T10:34:10;100665.0;;;25.98;31.78
32452;BME280;45528;52.102;5.242;2023-07-02T10:35:47;100664.0;;;25.76;31.98
32452;BME280;45528;52.102;5.242;2023-07-02T10:39:02;100684.0;;;25.91;32.01
32452;BME280;45528;52.102;5.242;2023-07-02T10:40:39;100674.0;;;25.72;32.24
32452;BME280;45528;52.102;5.242;2023-07-02T10:42:16;100676.0;;;25.65;32.62
32452;BME280;45528;52.102;5.242;2023-07-02T10:45:31;100690.0;;;25.51;32.64
32452;BME280;45528;52.102;5.242;2023-07-02T10:47:08;100692.0;;;25.19;32.72
32452;BME280;45528;52.102;5.242;2023-07-02T10:48:51;100688.0;;;25.25;32.87
32452;BME280;45528;52.102;5.242;2023-07-02T10:50:31;100681.0;;;25.32;33.55
32452;BME280;45528;52.102;5.242;2023-07-02T10:53:44;100688.0;;;25.14;34.11
32452;BME280;45528;52.102;5.242;2023-07-02T10:55:20;100686.0;;;25.22;34.69
32452;BME280;45528;52.102;5.242;2023-07-02T10:56:58;100673.0;;;25.48;34.64
32452;BME280;45528;52.102;5.242;2023-07-02T11:00:19;100678.0;;;25.6;33.25
32452;BME280;45528;52.102;5.242;2023-07-02T11:01:56;100680.0;;;25.58;33.51
32452;BME280;45528;52.102;5.242;2023-07-02T11:03:32;100683.0;;;25.79;33.4
32452;BME280;45528;52.102;5.242;2023-07-02T11:05:10;100681.0;;;25.84;32.87